Time;durP1;ratioP1;P1;durP2;ratioP2;P2;SDS_P1;SDS_P2;PMS_P1;PMS_P2;Temp;Humidity;BMP_temperature;BMP_pressure;BME280_temperature;BME280_humidity;BME280_pressure;Samples;Min_cycle;Max_cycle;Signal;HPM_P1;HPM_P2
2021/05/28 00:01:01;;;;;;;5.10;4.70;;;13.90;99.70;;;;;;5021712;28;20458;-88
2021/05/28 00:03:27;;;;;;;5.27;4.70;;;13.90;99.90;;;;;;5020302;28;20487;-89
2021/05/28 00:05:53;;;;;;;5.23;4.13;;;13.80;99.90;;;;;;5019548;28;20484;-89
2021/05/28 00:08:21;;;;;;;5.77;5.27;;;13.80;99.90;;;;;;5021847;28;20446;-89
2021/05/28 00:10:47;;;;;;;7.10;5.70;;;13.80;99.90;;;;;;5016861;28;20455;-89
2021/05/28 00:13:13;;;;;;;6.30;5.80;;;13.70;99.90;;;;;;5011582;28;20497;-88
2021/05/28 00:15:40;;;;;;;6.03;5.53;;;13.80;99.90;;;;;;4998851;28;20452;-88
2021/05/28 00:18:08;;;;;;;6.77;6.17;;;13.80;99.90;;;;;;5001212;28;20440;-88
2021/05/28 00:20:35;;;;;;;7.67;6.97;;;13.70;99.90;;;;;;5002403;28;20501;-89
2021/05/28 00:23:01;;;;;;;6.87;6.37;;;13.70;99.90;;;;;;4998882;28;20448;-89
2021/05/28 00:25:29;;;;;;;6.97;6.30;;;13.60;99.90;;;;;;4996949;28;20480;-90
2021/05/28 00:27:55;;;;;;;7.43;6.73;;;13.60;99.90;;;;;;4995181;28;20450;-89
2021/05/28 00:30:21;;;;;;;6.60;6.00;;;13.60;99.90;;;;;;4998474;28;20851;-89
2021/05/28 00:32:48;;;;;;;7.30;6.60;;;13.60;99.90;;;;;;4998336;28;20511;-89
2021/05/28 00:35:14;;;;;;;8.87;8.07;;;13.60;99.90;;;;;;4996748;28;20447;-90
2021/05/28 00:37:41;;;;;;;8.00;7.17;;;13.60;99.90;;;;;;4994454;28;20449;-89
2021/05/28 00:40:08;;;;;;;9.77;7.80;;;13.60;99.90;;;;;;4996109;28;20510;-89
2021/05/28 00:42:35;;;;;;;7.53;6.90;;;13.60;99.90;;;;;;4994891;28;20951;-89
2021/05/28 00:45:01;;;;;;;8.50;7.70;;;13.60;99.90;;;;;;4993758;28;20445;-89
2021/05/28 00:47:27;;;;;;;9.63;8.83;;;13.60;99.90;;;;;;4995198;28;20820;-89
2021/05/28 00:49:54;;;;;;;9.37;8.50;;;13.50;99.90;;;;;;4994671;28;20832;-89
2021/05/28 00:52:20;;;;;;;9.10;8.40;;;13.60;99.90;;;;;;4998655;28;20458;-89
2021/05/28 00:54:47;;;;;;;8.93;8.20;;;13.60;99.90;;;;;;5008423;28;20458;-89
2021/05/28 00:57:13;;;;;;;12.23;7.93;;;13.60;99.90;;;;;;5000646;28;20930;-89
2021/05/28 00:59:40;;;;;;;9.13;8.33;;;13.60;99.90;;;;;;4994826;28;20434;-89
2021/05/28 01:02:07;;;;;;;8.17;7.37;;;13.60;99.90;;;;;;4994889;28;20432;-89
2021/05/28 01:04:33;;;;;;;7.67;7.00;;;13.70;99.90;;;;;;4992491;28;20454;-89
2021/05/28 01:07:00;;;;;;;8.40;7.60;;;13.60;99.90;;;;;;4995031;28;20485;-89
2021/05/28 01:09:26;;;;;;;7.93;7.13;;;13.60;99.90;;;;;;4994874;28;20494;-89
2021/05/28 01:11:52;;;;;;;7.70;7.00;;;13.60;99.90;;;;;;4992682;28;20475;-89
2021/05/28 01:14:19;;;;;;;7.43;6.77;;;13.60;99.90;;;;;;4992742;28;20450;-89
2021/05/28 01:16:46;;;;;;;6.90;6.30;;;13.50;99.90;;;;;;5008123;28;20503;-89
2021/05/28 01:19:12;;;;;;;8.50;7.70;;;13.60;99.90;;;;;;5020025;28;20436;-89
2021/05/28 01:21:41;;;;;;;8.10;7.07;;;13.50;99.90;;;;;;5019878;28;20963;-89
2021/05/28 01:24:09;;;;;;;6.70;6.10;;;13.50;99.90;;;;;;5013240;28;20458;-89
2021/05/28 01:26:35;;;;;;;7.80;7.10;;;13.50;99.90;;;;;;5019044;28;20461;-89
2021/05/28 01:29:02;;;;;;;7.73;7.03;;;13.50;99.90;;;;;;5019711;28;20467;-90
2021/05/28 01:31:29;;;;;;;6.97;6.33;;;13.50;99.90;;;;;;4998084;28;20553;-89
2021/05/28 01:33:56;;;;;;;7.50;6.80;;;13.50;99.90;;;;;;4996258;28;20569;-89
2021/05/28 01:36:22;;;;;;;7.37;6.77;;;13.50;99.90;;;;;;4996401;28;20444;-89
2021/05/28 01:38:48;;;;;;;7.37;6.50;;;13.50;99.90;;;;;;4997154;28;20433;-88
2021/05/28 01:41:17;;;;;;;9.10;8.17;;;13.50;99.90;;;;;;4988581;28;20984;-89
2021/05/28 01:43:43;;;;;;;7.87;6.93;;;13.50;99.90;;;;;;4997247;28;20443;-89
2021/05/28 01:46:10;;;;;;;6.43;5.83;;;13.50;99.90;;;;;;4995623;28;21048;-89
2021/05/28 01:48:36;;;;;;;6.80;6.20;;;13.50;99.90;;;;;;4994856;28;20429;-89
2021/05/28 01:51:02;;;;;;;5.37;4.87;;;13.50;99.90;;;;;;4992417;28;20476;-89
2021/05/28 01:53:28;;;;;;;7.80;6.10;;;13.40;99.90;;;;;;4998021;28;20449;-89
2021/05/28 01:55:55;;;;;;;5.90;5.43;;;13.40;99.90;;;;;;4994676;28;20436;-89
2021/05/28 01:58:24;;;;;;;7.63;5.37;;;13.40;99.90;;;;;;4992440;28;20454;-89
2021/05/28 02:00:55;;;;;;;6.83;6.03;;;13.40;99.90;;;;;;4993951;28;21002;-90
2021/05/28 02:03:21;;;;;;;5.20;4.30;;;13.40;99.90;;;;;;4994226;28;20461;-90
2021/05/28 02:05:48;;;;;;;4.37;3.90;;;13.40;99.90;;;;;;4994631;28;20491;-89
2021/05/28 02:08:16;;;;;;;5.53;4.90;;;13.20;99.90;;;;;;4989653;28;20439;-89
2021/05/28 02:10:42;;;;;;;4.93;4.10;;;13.10;99.90;;;;;;4991381;28;20468;-89
2021/05/28 02:13:08;;;;;;;4.70;4.30;;;13.30;99.90;;;;;;4992589;28;20453;-89
2021/05/28 02:15:36;;;;;;;5.50;4.60;;;13.30;99.90;;;;;;5001019;28;20493;-90
2021/05/28 02:18:04;;;;;;;4.90;4.50;;;13.30;99.90;;;;;;5000622;28;20457;-89
2021/05/28 02:20:30;;;;;;;5.10;4.40;;;13.30;99.90;;;;;;4995433;28;20461;-89
2021/05/28 02:22:57;;;;;;;6.60;4.30;;;13.30;99.90;;;;;;5010539;28;20445;-89
2021/05/28 02:25:23;;;;;;;4.40;3.90;;;13.30;99.90;;;;;;4999144;28;20574;-89
2021/05/28 02:27:49;;;;;;;5.10;4.60;;;13.30;99.90;;;;;;4999965;28;20461;-89
2021/05/28 02:30:16;;;;;;;5.23;4.73;;;13.30;99.90;;;;;;5001525;28;20473;-89
2021/05/28 02:32:45;;;;;;;5.97;5.40;;;13.30;99.90;;;;;;4995991;28;20435;-89
2021/05/28 02:35:12;;;;;;;5.13;4.60;;;13.20;99.90;;;;;;4991349;28;20835;-89
2021/05/28 02:37:39;;;;;;;5.60;4.50;;;13.30;99.90;;;;;;4991942;28;20440;-89
2021/05/28 02:40:08;;;;;;;5.20;4.70;;;13.30;99.90;;;;;;4994154;28;20453;-90
2021/05/28 02:42:34;;;;;;;7.33;4.73;;;13.30;99.90;;;;;;5010386;28;20429;-89
2021/05/28 02:45:01;;;;;;;4.00;3.70;;;13.40;99.90;;;;;;4997265;28;20464;-89
2021/05/28 02:47:27;;;;;;;4.73;4.33;;;13.30;99.90;;;;;;4989891;28;20437;-89
2021/05/28 02:49:54;;;;;;;5.13;4.73;;;13.30;99.90;;;;;;4993455;28;20480;-90
2021/05/28 02:52:20;;;;;;;5.20;4.80;;;13.30;99.90;;;;;;4993567;28;20449;-90
2021/05/28 02:54:46;;;;;;;6.10;4.60;;;13.40;99.90;;;;;;4993065;28;20445;-89
2021/05/28 02:57:13;;;;;;;6.63;5.10;;;13.30;99.90;;;;;;4992046;28;20538;-89
2021/05/28 02:59:39;;;;;;;5.00;4.53;;;13.30;99.90;;;;;;4991497;28;20439;-89
2021/05/28 03:02:06;;;;;;;4.87;4.47;;;13.20;99.90;;;;;;4991088;28;21016;-89
2021/05/28 03:04:33;;;;;;;6.53;5.93;;;13.20;99.90;;;;;;4992550;28;20462;-88
2021/05/28 03:07:00;;;;;;;5.30;4.90;;;13.10;99.90;;;;;;4991440;28;20479;-89
2021/05/28 03:09:26;;;;;;;5.47;4.97;;;13.10;99.90;;;;;;4992931;28;20458;-89
2021/05/28 03:11:52;;;;;;;8.60;5.07;;;13.10;99.90;;;;;;4992570;28;20480;-89
2021/05/28 03:14:19;;;;;;;4.90;4.50;;;13.10;99.90;;;;;;4992865;28;20956;-89
2021/05/28 03:16:45;;;;;;;5.80;5.20;;;13.20;99.90;;;;;;4989925;28;20440;-89
2021/05/28 03:19:19;;;;;;;5.77;4.43;;;13.20;99.90;;;;;;4992862;28;20443;-89
2021/05/28 03:24:27;;;;;;;4.30;3.67;;;13.10;99.90;;;;;;5003395;28;20813;-89
2021/05/28 03:26:53;;;;;;;4.30;4.00;;;13.10;99.90;;;;;;5006781;28;20888;-89
2021/05/28 03:29:19;;;;;;;4.67;4.27;;;13.10;99.90;;;;;;4993014;28;21208;-89
2021/05/28 03:31:46;;;;;;;5.20;4.80;;;13.10;99.90;;;;;;5002787;28;20461;-89
2021/05/28 03:34:41;;;;;;;4.63;4.20;;;13.10;99.90;;;;;;5018446;28;20420;-89
2021/05/28 03:37:07;;;;;;;5.20;4.70;;;13.00;99.90;;;;;;5018668;28;20415;-89
2021/05/28 03:39:35;;;;;;;5.00;4.30;;;12.90;99.90;;;;;;5018205;28;20427;-90
2021/05/28 03:42:01;;;;;;;6.30;5.30;;;12.80;99.90;;;;;;5017854;28;20433;-89
2021/05/28 03:44:27;;;;;;;5.07;4.23;;;12.70;99.90;;;;;;5005546;28;20456;-89
2021/05/28 03:46:54;;;;;;;5.00;4.63;;;12.70;99.90;;;;;;4996110;28;20477;-89
2021/05/28 03:49:20;;;;;;;4.80;4.40;;;12.70;99.90;;;;;;5018724;28;20440;-88
2021/05/28 03:51:47;;;;;;;6.20;5.10;;;12.80;99.90;;;;;;5017954;28;20528;-90
2021/05/28 03:54:15;;;;;;;5.97;5.17;;;12.70;99.90;;;;;;5002812;28;20433;-89
2021/05/28 03:56:42;;;;;;;5.73;5.13;;;12.70;99.90;;;;;;5008318;28;20451;-89
2021/05/28 03:59:08;;;;;;;7.10;5.40;;;12.60;99.90;;;;;;5008207;28;20436;-88
2021/05/28 04:01:34;;;;;;;5.83;5.23;;;12.60;99.90;;;;;;5016392;28;20474;-88
2021/05/28 04:04:00;;;;;;;5.43;4.20;;;12.50;99.90;;;;;;5011449;28;20477;-88
2021/05/28 04:06:26;;;;;;;7.27;5.57;;;12.50;99.90;;;;;;4997595;28;20486;-89
2021/05/28 04:08:53;;;;;;;5.87;5.27;;;12.60;99.90;;;;;;4991186;28;20452;-89
2021/05/28 04:11:19;;;;;;;6.47;5.83;;;12.60;99.90;;;;;;5006748;28;20464;-89
2021/05/28 04:13:47;;;;;;;6.67;5.60;;;12.60;99.90;;;;;;4999941;28;20443;-89
2021/05/28 04:16:13;;;;;;;8.10;5.60;;;12.60;99.90;;;;;;5016284;28;20449;-89
2021/05/28 04:18:40;;;;;;;7.43;6.67;;;12.50;99.90;;;;;;5020080;28;20448;-89
2021/05/28 04:21:07;;;;;;;7.10;6.40;;;12.50;99.90;;;;;;4999984;28;20465;-89
2021/05/28 04:23:33;;;;;;;9.73;6.60;;;12.40;99.90;;;;;;5019972;28;20436;-89
2021/05/28 04:26:00;;;;;;;6.13;5.50;;;12.30;99.90;;;;;;5010630;28;20478;-89
2021/05/28 04:28:28;;;;;;;7.40;6.70;;;12.40;99.90;;;;;;5001061;28;21002;-89
2021/05/28 04:30:57;;;;;;;9.57;6.87;;;12.50;99.90;;;;;;4994819;28;20462;-89
2021/05/28 04:33:24;;;;;;;7.37;5.90;;;12.60;99.90;;;;;;4998855;28;20943;-89
2021/05/28 04:35:51;;;;;;;8.37;6.60;;;12.70;99.90;;;;;;4998518;28;20819;-89
2021/05/28 04:38:17;;;;;;;8.40;7.53;;;12.70;99.90;;;;;;4998384;28;20451;-89
2021/05/28 04:40:44;;;;;;;9.57;6.90;;;12.80;99.90;;;;;;5001538;28;20503;-89
2021/05/28 04:43:11;;;;;;;7.57;6.50;;;12.80;99.90;;;;;;5007153;28;20468;-89
2021/05/28 04:45:38;;;;;;;6.67;6.03;;;13.00;99.90;;;;;;5001125;28;20487;-89
2021/05/28 04:48:07;;;;;;;9.13;7.10;;;13.10;99.90;;;;;;5006016;28;20437;-89
2021/05/28 04:50:35;;;;;;;11.97;8.57;;;13.10;99.90;;;;;;4999158;28;21027;-89
2021/05/28 04:53:03;;;;;;;8.63;7.27;;;13.20;99.90;;;;;;4997400;28;20449;-89
2021/05/28 04:55:30;;;;;;;9.50;7.63;;;13.30;99.90;;;;;;4996434;28;20454;-89
2021/05/28 04:57:57;;;;;;;8.70;7.37;;;13.40;99.90;;;;;;4996585;28;20445;-88
2021/05/28 05:00:24;;;;;;;12.60;8.00;;;13.40;99.90;;;;;;4991865;28;20480;-88
2021/05/28 05:02:50;;;;;;;6.80;6.20;;;13.50;99.90;;;;;;4996174;28;20812;-88
2021/05/28 05:05:18;;;;;;;13.53;8.10;;;13.50;99.90;;;;;;4995798;28;20525;-88
2021/05/28 05:07:44;;;;;;;13.43;8.20;;;13.60;99.90;;;;;;4995920;28;20496;-89
2021/05/28 05:10:12;;;;;;;9.97;7.90;;;13.60;99.90;;;;;;4992246;28;20470;-89
2021/05/28 05:12:39;;;;;;;8.33;7.53;;;13.60;99.90;;;;;;4999085;28;20956;-88
2021/05/28 05:15:06;;;;;;;8.30;7.50;;;13.60;99.90;;;;;;5000679;28;20468;-89
2021/05/28 05:17:33;;;;;;;14.37;8.20;;;13.70;99.90;;;;;;4999708;28;20453;-89
2021/05/28 05:19:59;;;;;;;7.20;6.47;;;13.80;99.80;;;;;;4996788;28;20462;-89
2021/05/28 05:22:27;;;;;;;8.13;7.40;;;13.80;99.60;;;;;;5006194;28;20438;-89
2021/05/28 05:24:53;;;;;;;9.70;8.33;;;14.00;99.50;;;;;;4991963;28;20450;-89
2021/05/28 05:27:20;;;;;;;9.20;7.80;;;14.00;99.40;;;;;;5016418;28;20471;-89
2021/05/28 05:29:46;;;;;;;8.50;7.70;;;14.10;99.20;;;;;;5011542;28;20452;-88
2021/05/28 05:32:12;;;;;;;8.70;7.77;;;14.30;98.90;;;;;;4996900;28;20447;-89
2021/05/28 05:34:39;;;;;;;8.20;7.50;;;14.40;98.80;;;;;;4992104;28;20447;-89
2021/05/28 05:37:05;;;;;;;9.00;8.17;;;14.50;98.00;;;;;;5010019;28;20426;-88
2021/05/28 05:39:33;;;;;;;8.70;7.83;;;14.60;97.70;;;;;;4999758;28;20437;-88
2021/05/28 05:42:01;;;;;;;9.40;7.73;;;14.70;97.50;;;;;;4997951;28;20450;-88
2021/05/28 05:44:27;;;;;;;8.30;7.50;;;14.70;97.20;;;;;;5005311;28;20439;-88
2021/05/28 05:46:54;;;;;;;10.43;8.83;;;14.80;97.10;;;;;;4996891;28;20573;-89
2021/05/28 05:49:20;;;;;;;9.50;8.40;;;14.70;97.00;;;;;;4995457;28;20440;-89
2021/05/28 05:51:46;;;;;;;9.77;8.00;;;14.80;97.20;;;;;;5002255;28;20455;-89
2021/05/28 05:54:12;;;;;;;9.10;8.30;;;14.90;96.90;;;;;;4996731;28;20823;-89
2021/05/28 05:56:40;;;;;;;13.13;8.33;;;15.10;96.70;;;;;;4993268;28;20445;-89
2021/05/28 05:59:06;;;;;;;11.13;7.40;;;15.20;96.40;;;;;;4994058;28;20464;-90
2021/05/28 06:01:33;;;;;;;9.73;8.60;;;15.30;96.10;;;;;;5005297;28;20483;-89
2021/05/28 06:03:59;;;;;;;11.50;9.07;;;15.30;96.00;;;;;;4996992;28;20844;-89
2021/05/28 06:06:26;;;;;;;10.97;8.23;;;15.20;96.10;;;;;;4996772;28;20475;-89
2021/05/28 06:08:53;;;;;;;11.50;7.97;;;15.20;96.10;;;;;;4994965;28;20633;-89
2021/05/28 06:11:19;;;;;;;9.93;8.93;;;15.10;96.20;;;;;;4997730;28;20532;-87
2021/05/28 06:13:47;;;;;;;9.77;8.57;;;15.10;96.50;;;;;;5001874;28;20428;-90
2021/05/28 06:16:15;;;;;;;11.43;9.50;;;15.20;96.60;;;;;;5001036;28;20814;-88
2021/05/28 06:19:15;;;;;;;8.50;7.70;;;15.30;96.30;;;;;;4995179;28;20482;-88
2021/05/28 06:22:20;;;;;;;9.63;8.63;;;15.30;96.20;;;;;;4949837;28;20474;-88
2021/05/28 06:25:33;;;;;;;10.53;8.87;;;15.40;96.40;;;;;;4877130;29;20452;-88
2021/05/28 06:38:21;;;;;;;11.50;8.33;;;15.60;95.70;;;;;;4842791;29;20928;-89
2021/05/28 06:47:33;;;;;;;10.00;8.87;;;16.20;94.60;;;;;;4945681;28;20497;-88
2021/05/28 06:50:00;;;;;;;10.53;8.70;;;16.30;94.40;;;;;;4995934;28;20483;-88
2021/05/28 06:52:26;;;;;;;13.00;8.13;;;16.50;94.20;;;;;;4996160;28;20450;-88
2021/05/28 06:54:52;;;;;;;10.53;9.07;;;16.70;93.60;;;;;;5005819;28;20495;-88
2021/05/28 06:57:19;;;;;;;8.73;7.93;;;16.60;93.30;;;;;;4996376;28;20498;-88
2021/05/28 06:59:45;;;;;;;10.93;9.83;;;16.50;93.60;;;;;;5013224;28;20705;-87
2021/05/28 07:02:11;;;;;;;9.77;8.10;;;16.60;93.40;;;;;;5015145;28;20561;-88
2021/05/28 07:04:38;;;;;;;8.50;7.80;;;16.90;93.20;;;;;;5013169;28;20520;-87
2021/05/28 07:07:05;;;;;;;9.00;8.20;;;17.10;92.60;;;;;;5011745;28;20572;-88
2021/05/28 07:09:32;;;;;;;9.33;8.60;;;17.60;92.50;;;;;;5005561;28;20503;-87
2021/05/28 07:11:58;;;;;;;11.40;8.80;;;18.30;91.60;;;;;;5016669;28;20447;-88
2021/05/28 07:14:24;;;;;;;9.60;8.70;;;18.30;90.30;;;;;;5015481;28;20524;-88
2021/05/28 07:16:50;;;;;;;8.67;7.40;;;18.00;90.30;;;;;;5007082;28;20471;-88
2021/05/28 07:19:17;;;;;;;9.40;8.50;;;17.80;90.30;;;;;;5007356;28;20450;-87
2021/05/28 07:21:44;;;;;;;12.33;8.57;;;17.70;90.30;;;;;;4998432;28;20455;-88
2021/05/28 07:24:10;;;;;;;8.73;7.90;;;17.20;90.40;;;;;;4991837;28;20504;-88
2021/05/28 07:26:38;;;;;;;8.63;7.83;;;17.00;91.10;;;;;;4993405;28;20982;-90
2021/05/28 07:29:05;;;;;;;8.20;7.40;;;17.30;91.30;;;;;;4996571;28;20444;-89
2021/05/28 07:31:31;;;;;;;10.67;9.57;;;17.80;90.70;;;;;;4995379;28;20466;-90
2021/05/28 07:34:16;;;;;;;8.00;6.90;;;18.10;90.10;;;;;;5007858;28;20450;-91
2021/05/28 07:37:02;;;;;;;8.60;7.77;;;19.10;89.00;;;;;;5010905;28;20451;-89
2021/05/28 07:39:44;;;;;;;8.60;7.90;;;19.80;84.30;;;;;;4957772;28;20555;-90
2021/05/28 07:42:30;;;;;;;8.33;7.63;;;19.70;81.60;;;;;;5006835;28;20967;-91
2021/05/28 07:45:36;;;;;;;7.47;6.80;;;19.90;81.00;;;;;;5001903;28;20459;-90
2021/05/28 07:48:10;;;;;;;7.83;6.20;;;20.00;78.40;;;;;;5003411;28;20439;-91
2021/05/28 07:50:45;;;;;;;9.63;7.57;;;19.80;78.30;;;;;;5016097;28;20467;-92
2021/05/28 07:53:24;;;;;;;9.57;6.27;;;19.10;80.10;;;;;;5010372;28;20439;-92
2021/05/28 07:58:58;;;;;;;7.10;5.93;;;19.40;79.80;;;;;;4991513;28;20443;-92
2021/05/28 08:01:37;;;;;;;8.83;6.23;;;19.50;79.80;;;;;;5005196;28;20940;-89
2021/05/28 08:04:10;;;;;;;6.23;5.60;;;19.80;78.80;;;;;;5015514;28;20495;-89
2021/05/28 08:06:38;;;;;;;7.07;6.47;;;19.60;77.00;;;;;;5001200;28;20474;-90
2021/05/28 08:09:27;;;;;;;7.23;6.37;;;19.60;78.10;;;;;;5008308;28;20464;-90
2021/05/28 08:11:57;;;;;;;8.10;6.30;;;19.90;77.50;;;;;;4998585;28;20459;-90
2021/05/28 08:14:46;;;;;;;6.40;5.80;;;20.20;76.70;;;;;;5005106;28;20451;-91
2021/05/28 08:17:13;;;;;;;6.13;5.63;;;20.20;75.90;;;;;;5002430;28;20494;-90
2021/05/28 08:19:41;;;;;;;6.63;5.93;;;19.90;75.60;;;;;;4999131;28;20460;-90
2021/05/28 08:22:19;;;;;;;8.67;6.50;;;19.00;76.40;;;;;;5000239;28;21002;-91
2021/05/28 08:24:46;;;;;;;7.80;7.00;;;18.70;79.10;;;;;;5008019;28;20498;-87
2021/05/28 08:27:13;;;;;;;7.37;6.10;;;18.60;79.70;;;;;;5003038;28;20509;-87
2021/05/28 08:29:40;;;;;;;7.10;6.40;;;18.80;79.90;;;;;;5014956;28;20636;-86
2021/05/28 08:32:06;;;;;;;11.30;6.80;;;18.60;79.90;;;;;;5008122;28;20451;-86
2021/05/28 08:34:32;;;;;;;8.97;6.70;;;18.70;80.90;;;;;;4989106;28;20459;-86
2021/05/28 08:36:59;;;;;;;7.20;6.60;;;18.70;80.90;;;;;;4997580;28;20438;-87
2021/05/28 08:39:25;;;;;;;7.50;6.70;;;18.90;80.30;;;;;;4989167;28;20827;-88
2021/05/28 08:41:54;;;;;;;11.13;7.23;;;19.10;79.10;;;;;;4998617;28;20466;-86
2021/05/28 08:44:24;;;;;;;7.33;6.63;;;18.80;78.50;;;;;;4997631;28;20454;-87
2021/05/28 08:46:50;;;;;;;8.87;7.03;;;18.80;80.20;;;;;;4997765;28;20485;-88
2021/05/28 08:49:17;;;;;;;7.70;6.90;;;19.10;78.00;;;;;;4985624;28;20462;-88
2021/05/28 08:51:44;;;;;;;8.30;7.03;;;19.50;76.40;;;;;;4976436;28;20536;-87
2021/05/28 08:54:11;;;;;;;7.53;6.60;;;19.80;75.10;;;;;;4971309;28;20484;-89
2021/05/28 08:56:37;;;;;;;6.90;6.13;;;19.20;76.70;;;;;;4958043;29;20457;-87
2021/05/28 08:59:06;;;;;;;7.33;6.53;;;19.50;77.90;;;;;;4968205;28;20456;-87
2021/05/28 09:01:33;;;;;;;7.93;6.77;;;20.30;75.80;;;;;;4976970;28;20830;-87
2021/05/28 09:04:00;;;;;;;7.50;6.70;;;20.90;73.70;;;;;;4977638;28;20457;-86
2021/05/28 09:06:38;;;;;;;7.03;6.13;;;21.40;72.10;;;;;;4977233;28;20492;-88
2021/05/28 09:09:14;;;;;;;6.70;6.00;;;21.30;70.80;;;;;;4983798;28;20461;-87
2021/05/28 09:11:51;;;;;;;7.17;5.80;;;21.10;70.00;;;;;;4977456;28;20474;-87
2021/05/28 09:14:30;;;;;;;7.20;6.33;;;20.90;71.00;;;;;;4980291;28;20454;-87
2021/05/28 09:16:56;;;;;;;9.60;7.27;;;20.90;71.40;;;;;;4992146;28;20457;-87
2021/05/28 09:19:23;;;;;;;7.60;6.80;;;21.00;70.70;;;;;;4967977;28;20456;-87
2021/05/28 09:21:55;;;;;;;6.80;6.20;;;21.20;71.00;;;;;;4969811;28;20490;-87
2021/05/28 09:24:31;;;;;;;7.00;5.97;;;21.10;70.40;;;;;;4971457;29;20458;-88
2021/05/28 09:27:18;;;;;;;7.50;6.20;;;21.00;70.30;;;;;;4961700;28;20482;-88
2021/05/28 09:30:05;;;;;;;6.60;5.97;;;20.70;69.50;;;;;;4978522;28;20441;-87
2021/05/28 09:32:32;;;;;;;7.40;6.17;;;20.50;70.00;;;;;;4994981;28;20446;-88
2021/05/28 09:34:58;;;;;;;6.60;5.50;;;19.90;69.30;;;;;;4994973;28;20457;-88
2021/05/28 09:37:38;;;;;;;6.03;5.43;;;19.70;71.20;;;;;;4974821;28;20448;-87
2021/05/28 09:40:07;;;;;;;5.70;5.20;;;19.60;72.20;;;;;;4974712;28;20477;-88
2021/05/28 09:42:47;;;;;;;7.73;6.30;;;19.60;70.80;;;;;;4976092;28;20452;-87
2021/05/28 09:45:32;;;;;;;6.03;5.27;;;19.60;71.60;;;;;;4974770;28;20485;-87
2021/05/28 09:47:59;;;;;;;6.03;5.40;;;19.50;72.50;;;;;;4988468;28;20439;-87
2021/05/28 09:50:32;;;;;;;9.13;5.60;;;19.30;73.20;;;;;;4990244;28;20477;-88
2021/05/28 09:52:58;;;;;;;5.63;5.03;;;18.90;72.90;;;;;;4989891;28;20512;-87
2021/05/28 09:55:27;;;;;;;7.50;6.10;;;18.90;73.60;;;;;;4999883;28;20439;-88
2021/05/28 09:57:53;;;;;;;8.97;5.57;;;19.00;72.60;;;;;;4992729;28;20482;-88
2021/05/28 10:00:26;;;;;;;6.30;5.40;;;19.10;71.60;;;;;;4980382;28;20516;-87
2021/05/28 10:03:11;;;;;;;7.93;5.13;;;19.20;70.80;;;;;;4976289;28;21006;-87
2021/05/28 10:05:39;;;;;;;4.93;4.40;;;19.40;70.50;;;;;;4971101;28;20429;-87
2021/05/28 10:08:08;;;;;;;4.57;3.93;;;19.50;70.00;;;;;;4979234;28;20437;-87
2021/05/28 10:10:35;;;;;;;7.57;5.23;;;19.50;68.40;;;;;;4968133;28;20491;-87
2021/05/28 10:13:09;;;;;;;4.97;4.37;;;19.50;68.50;;;;;;4969397;28;20487;-87
2021/05/28 10:15:38;;;;;;;5.03;4.53;;;19.50;68.50;;;;;;4970104;28;20448;-87
2021/05/28 10:18:05;;;;;;;6.63;6.10;;;19.40;69.10;;;;;;4971005;28;20511;-87
2021/05/28 10:20:31;;;;;;;6.13;5.10;;;19.40;68.50;;;;;;4972397;28;20517;-87
2021/05/28 10:22:58;;;;;;;5.77;5.27;;;19.20;69.40;;;;;;4975316;28;20495;-87
2021/05/28 10:25:24;;;;;;;5.70;5.20;;;19.40;69.60;;;;;;4971059;28;20425;-87
2021/05/28 10:27:55;;;;;;;8.17;6.07;;;20.50;68.00;;;;;;4973175;28;20540;-87
2021/05/28 10:30:24;;;;;;;5.50;5.00;;;21.00;64.50;;;;;;4975630;28;20447;-87
2021/05/28 10:33:15;;;;;;;7.73;5.07;;;21.90;64.00;;;;;;4972591;28;20434;-87
2021/05/28 10:35:45;;;;;;;8.57;5.03;;;23.20;59.50;;;;;;4970055;28;20484;-88
2021/05/28 10:38:43;;;;;;;5.67;5.17;;;23.30;58.50;;;;;;4970830;28;20547;-88
2021/05/28 10:41:34;;;;;;;6.57;5.97;;;23.70;58.30;;;;;;4889025;29;20470;-88
2021/05/28 10:44:04;;;;;;;6.20;4.73;;;25.10;58.50;;;;;;4963496;28;20452;-88
2021/05/28 10:46:30;;;;;;;5.53;5.03;;;27.30;53.30;;;;;;4973965;28;20476;-86
2021/05/28 10:49:09;;;;;;;6.97;6.43;;;27.90;50.80;;;;;;4971962;28;20941;-86
2021/05/28 10:52:01;;;;;;;5.53;4.77;;;30.40;47.10;;;;;;4967683;28;20560;-87
2021/05/28 10:54:31;;;;;;;6.33;5.13;;;30.20;44.50;;;;;;4969344;28;20811;-87
2021/05/28 10:57:21;;;;;;;4.67;4.27;;;31.40;43.90;;;;;;4968839;28;20965;-87
2021/05/28 10:59:48;;;;;;;7.00;4.73;;;32.60;40.20;;;;;;4972471;28;20458;-87
2021/05/28 11:02:16;;;;;;;4.60;4.20;;;32.70;38.90;;;;;;4975256;28;20543;-87
2021/05/28 11:04:59;;;;;;;3.50;3.20;;;32.70;38.40;;;;;;4974655;28;20863;-88
2021/05/28 11:07:34;;;;;;;3.57;3.27;;;32.50;35.70;;;;;;4967261;28;20487;-87
2021/05/28 11:10:20;;;;;;;3.90;3.47;;;30.20;37.60;;;;;;4966321;28;20495;-87
2021/05/28 11:12:48;;;;;;;4.23;3.93;;;28.00;40.70;;;;;;4970182;28;20456;-87
2021/05/28 11:15:16;;;;;;;4.60;4.10;;;26.80;43.20;;;;;;4967927;28;20464;-86
2021/05/28 11:17:58;;;;;;;4.30;3.23;;;25.70;45.00;;;;;;4975213;28;20437;-86
2021/05/28 11:20:28;;;;;;;4.03;3.63;;;26.90;45.30;;;;;;4988832;28;20484;-87
2021/05/28 11:22:54;;;;;;;3.40;3.10;;;28.20;42.60;;;;;;4983777;28;20449;-87
2021/05/28 11:25:22;;;;;;;3.50;3.20;;;28.60;42.70;;;;;;4971175;28;20453;-87
2021/05/28 11:27:55;;;;;;;4.10;3.37;;;27.60;43.00;;;;;;4983668;28;20488;-87
2021/05/28 11:30:37;;;;;;;3.97;3.67;;;28.00;42.40;;;;;;4980464;28;20469;-87
2021/05/28 11:33:03;;;;;;;4.17;3.17;;;28.80;43.10;;;;;;4984446;28;20436;-90
2021/05/28 11:35:37;;;;;;;3.60;2.90;;;30.60;40.60;;;;;;4989123;28;20440;-86
2021/05/28 11:38:05;;;;;;;4.13;3.70;;;31.40;39.00;;;;;;4987744;28;20455;-88
2021/05/28 11:40:41;;;;;;;4.43;3.53;;;34.00;37.00;;;;;;4988516;28;20528;-86
2021/05/28 11:43:10;;;;;;;3.80;3.50;;;32.20;35.60;;;;;;4976665;28;20452;-87
2021/05/28 11:45:37;;;;;;;3.57;3.27;;;33.10;36.60;;;;;;4973565;28;20440;-87
2021/05/28 11:48:10;;;;;;;4.83;3.53;;;34.70;33.40;;;;;;4970246;28;20571;-87
2021/05/28 11:50:41;;;;;;;3.67;3.30;;;35.20;31.80;;;;;;4966066;28;20460;-87
2021/05/28 11:53:09;;;;;;;2.70;2.33;;;35.10;32.20;;;;;;4970798;28;20455;-88
2021/05/28 11:55:44;;;;;;;2.37;2.17;;;35.90;31.80;;;;;;4966361;28;20453;-88
2021/05/28 11:58:10;;;;;;;3.37;3.07;;;35.70;30.70;;;;;;4966646;28;20443;-87
2021/05/28 12:00:36;;;;;;;3.10;2.67;;;34.80;29.70;;;;;;4966332;28;20461;-87
2021/05/28 12:03:03;;;;;;;3.30;3.00;;;34.50;30.00;;;;;;4967065;28;20464;-88
2021/05/28 12:05:31;;;;;;;4.40;2.83;;;32.40;32.90;;;;;;4966176;28;20806;-88
2021/05/28 12:08:01;;;;;;;3.03;2.83;;;33.20;32.00;;;;;;4967318;28;20574;-88
2021/05/28 12:10:28;;;;;;;3.10;2.63;;;32.40;31.50;;;;;;4967175;28;20468;-88
2021/05/28 12:13:00;;;;;;;2.93;2.70;;;31.80;33.40;;;;;;4968039;28;20444;-88
2021/05/28 12:15:30;;;;;;;2.47;2.27;;;32.70;32.40;;;;;;4963173;28;20496;-88
2021/05/28 12:17:56;;;;;;;1.87;1.77;;;32.40;31.60;;;;;;4964712;28;20444;-88
2021/05/28 12:20:25;;;;;;;3.67;2.43;;;31.00;33.20;;;;;;4965119;28;20460;-88
2021/05/28 12:23:04;;;;;;;2.47;2.27;;;29.40;35.10;;;;;;4966322;28;20542;-88
2021/05/28 12:25:32;;;;;;;5.13;2.23;;;27.50;38.00;;;;;;4968904;28;20448;-88
2021/05/28 12:28:17;;;;;;;3.70;3.17;;;26.10;40.60;;;;;;4966307;28;20487;-88
2021/05/28 12:30:45;;;;;;;3.07;2.87;;;25.20;43.00;;;;;;4970526;28;20536;-87
2021/05/28 12:33:12;;;;;;;3.20;2.97;;;24.20;44.70;;;;;;4973772;28;20456;-88
2021/05/28 12:35:39;;;;;;;6.33;3.43;;;22.80;46.60;;;;;;4968702;28;20467;-88
2021/05/28 12:38:12;;;;;;;2.97;2.57;;;22.50;47.70;;;;;;4971593;28;20456;-87
2021/05/28 12:40:43;;;;;;;2.60;2.40;;;22.40;47.40;;;;;;4976489;28;20472;-88
2021/05/28 12:43:10;;;;;;;2.47;2.27;;;22.50;47.60;;;;;;4989071;28;20520;-88
2021/05/28 12:45:40;;;;;;;2.00;1.80;;;22.20;47.20;;;;;;4983052;28;20493;-88
2021/05/28 12:48:07;;;;;;;4.40;3.13;;;21.80;47.10;;;;;;4999578;28;20483;-87
2021/05/28 12:50:36;;;;;;;3.80;2.30;;;23.70;46.60;;;;;;4988990;28;20466;-87
2021/05/28 12:53:04;;;;;;;3.20;2.50;;;27.10;42.80;;;;;;4986006;28;20433;-86
2021/05/28 12:55:33;;;;;;;3.23;2.20;;;28.70;38.50;;;;;;4987544;28;20453;-86
2021/05/28 12:58:01;;;;;;;1.97;1.67;;;31.00;35.80;;;;;;4972068;28;20564;-87
2021/05/28 13:00:38;;;;;;;2.30;2.10;;;32.30;34.60;;;;;;4970688;28;20495;-87
2021/05/28 13:03:05;;;;;;;4.17;2.80;;;33.70;32.00;;;;;;4971458;28;20457;-87
2021/05/28 13:05:36;;;;;;;3.80;3.50;;;34.10;31.70;;;;;;4975391;28;20510;-87
2021/05/28 13:08:06;;;;;;;3.20;2.90;;;34.30;31.60;;;;;;4977191;28;20467;-87
2021/05/28 13:10:33;;;;;;;2.90;2.70;;;33.30;31.90;;;;;;4983651;28;20490;-88
2021/05/28 13:13:22;;;;;;;3.00;2.80;;;32.10;33.90;;;;;;4969906;28;20567;-88
2021/05/28 13:15:49;;;;;;;2.80;2.50;;;31.00;35.60;;;;;;4972493;28;20807;-87
2021/05/28 13:18:15;;;;;;;3.00;2.70;;;29.00;38.30;;;;;;4969590;28;20547;-87
2021/05/28 13:20:42;;;;;;;3.33;3.10;;;27.40;40.00;;;;;;4971719;28;20479;-86